createdAt,value
2019-03-19T00:01:24.560Z,19.03
2019-03-19T00:03:52.312Z,26.67
2019-03-19T00:06:20.088Z,23.43
2019-03-19T00:08:47.845Z,19.60
2019-03-19T00:11:15.608Z,21.83
2019-03-19T00:13:43.387Z,23.73
2019-03-19T00:16:11.256Z,22.83
2019-03-19T00:18:38.891Z,24.40
2019-03-19T00:21:06.684Z,24.17
2019-03-19T00:23:34.669Z,29.07
2019-03-19T00:26:02.323Z,20.10
2019-03-19T00:28:30.093Z,22.83
2019-03-19T00:30:58.064Z,20.93
2019-03-19T00:33:25.833Z,22.33
2019-03-19T00:35:53.471Z,18.67
2019-03-19T00:38:21.356Z,22.87
2019-03-19T00:40:49.230Z,22.13
2019-03-19T00:43:16.988Z,19.33
2019-03-19T00:45:44.739Z,20.40
2019-03-19T00:48:12.529Z,30.70
2019-03-19T00:50:40.286Z,29.03
2019-03-19T00:53:07.980Z,27.50
2019-03-19T00:55:40.677Z,15.67
2019-03-19T00:58:05.541Z,14.38
2019-03-19T01:00:33.401Z,15.53
2019-03-19T01:03:01.272Z,14.00
2019-03-19T01:05:28.895Z,15.63
2019-03-19T01:07:56.887Z,14.60
2019-03-19T01:10:24.528Z,19.80
2019-03-19T01:12:52.256Z,15.93
2019-03-19T01:15:20.103Z,12.70
2019-03-19T01:17:47.860Z,16.00
2019-03-19T01:20:15.932Z,14.33
2019-03-19T01:22:43.697Z,15.67
2019-03-19T01:25:11.596Z,14.87
2019-03-19T01:27:39.450Z,15.43
2019-03-19T01:30:13.849Z,12.03
2019-03-19T01:32:41.520Z,16.00
2019-03-19T01:35:09.296Z,18.03
2019-03-19T01:37:36.993Z,18.63
2019-03-19T01:40:06.469Z,15.95
2019-03-19T01:42:34.220Z,15.57
2019-03-19T01:45:02.064Z,17.53
2019-03-19T01:47:29.757Z,12.80
2019-03-19T01:49:57.428Z,12.77
2019-03-19T01:52:25.297Z,12.50
2019-03-19T01:54:52.923Z,12.93
2019-03-19T01:57:20.724Z,11.77
2019-03-19T01:59:48.407Z,13.90
2019-03-19T02:02:16.132Z,12.27
2019-03-19T02:04:43.912Z,13.33
2019-03-19T02:07:11.788Z,18.47
2019-03-19T02:09:39.735Z,18.27
2019-03-19T02:12:07.519Z,13.03
2019-03-19T02:14:35.286Z,9.27
2019-03-19T02:17:03.061Z,13.23
2019-03-19T02:19:30.688Z,11.27
2019-03-19T02:21:58.480Z,15.43
2019-03-19T02:24:26.359Z,8.83
2019-03-19T02:26:54.222Z,10.87
2019-03-19T02:29:21.981Z,10.87
2019-03-19T02:31:49.752Z,11.00
2019-03-19T02:34:17.520Z,10.70
2019-03-19T02:36:45.383Z,11.67
2019-03-19T02:39:13.044Z,10.53
2019-03-19T02:41:40.822Z,11.03
2019-03-19T02:44:08.568Z,11.70
2019-03-19T02:46:36.232Z,10.60
2019-03-19T02:49:04.114Z,7.47
2019-03-19T02:51:32.284Z,9.17
2019-03-19T02:53:59.934Z,9.33
2019-03-19T02:56:33.193Z,8.17
2019-03-19T02:58:57.029Z,12.40
2019-03-19T03:01:24.667Z,11.13
2019-03-19T03:03:52.441Z,12.90
2019-03-19T03:06:20.214Z,12.33
2019-03-19T03:08:47.979Z,10.90
2019-03-19T03:11:15.737Z,10.67
2019-03-19T03:13:43.411Z,9.80
2019-03-19T03:16:11.281Z,8.27
2019-03-19T03:18:39.253Z,12.73
2019-03-19T03:21:07.009Z,12.47
2019-03-19T03:23:34.661Z,13.13
2019-03-19T03:26:02.399Z,12.67
2019-03-19T03:28:30.315Z,15.03
2019-03-19T03:30:58.082Z,12.10
2019-03-19T03:33:25.871Z,9.17
2019-03-19T03:35:53.560Z,8.77
2019-03-19T03:38:21.481Z,6.73
2019-03-19T03:40:49.459Z,8.60
2019-03-19T03:43:17.213Z,8.67
2019-03-19T03:45:44.980Z,15.00
2019-03-19T03:48:12.955Z,11.13
2019-03-19T03:50:40.820Z,8.80
2019-03-19T03:53:08.582Z,11.60
2019-03-19T03:55:36.370Z,9.83
2019-03-19T03:58:04.117Z,9.07
2019-03-19T04:00:32.501Z,6.50
2019-03-19T04:03:00.369Z,10.83
2019-03-19T04:05:28.236Z,11.70
2019-03-19T04:07:56.009Z,13.30
2019-03-19T04:10:23.780Z,10.20
2019-03-19T04:12:51.474Z,10.03
2019-03-19T04:15:19.299Z,14.30
2019-03-19T04:17:47.069Z,12.83
2019-03-19T04:20:18.412Z,11.13
2019-03-19T04:22:46.110Z,11.20
2019-03-19T04:25:13.840Z,7.07
2019-03-19T04:27:41.814Z,11.53
2019-03-19T04:30:16.833Z,10.93
2019-03-19T04:32:44.730Z,10.40
2019-03-19T04:35:12.589Z,12.67
2019-03-19T04:37:40.348Z,13.70
2019-03-19T04:40:12.322Z,14.20
2019-03-19T04:42:40.280Z,14.27
2019-03-19T04:45:09.493Z,11.67
2019-03-19T04:47:37.252Z,11.27
2019-03-19T04:50:07.478Z,12.95
2019-03-19T04:52:35.342Z,13.20
2019-03-19T04:55:03.942Z,16.37
2019-03-19T04:57:31.576Z,11.40
2019-03-19T04:59:59.352Z,11.90
2019-03-19T05:02:27.207Z,15.40
2019-03-19T05:04:54.990Z,12.43
2019-03-19T05:07:22.864Z,11.80
2019-03-19T05:09:50.521Z,14.87
2019-03-19T05:12:18.384Z,14.63
2019-03-19T05:14:46.157Z,13.97
2019-03-19T05:17:14.030Z,9.93
2019-03-19T05:19:41.680Z,11.17
2019-03-19T05:22:09.465Z,10.67
2019-03-19T05:24:37.149Z,12.40
2019-03-19T05:27:04.876Z,12.30
2019-03-19T05:29:32.719Z,34.33
2019-03-19T05:32:00.620Z,50.30
2019-03-19T05:34:28.383Z,36.67
2019-03-19T05:36:56.459Z,30.40
2019-03-19T05:39:24.091Z,39.73
2019-03-19T05:41:51.890Z,34.23
2019-03-19T05:44:19.580Z,30.37
2019-03-19T05:46:47.516Z,33.13
2019-03-19T05:49:15.171Z,38.07
2019-03-19T05:51:42.855Z,28.80
2019-03-19T05:54:10.629Z,30.13
2019-03-19T05:56:38.587Z,24.10
2019-03-19T05:59:06.364Z,22.50
2019-03-19T06:01:34.225Z,17.03
2019-03-19T06:04:01.929Z,12.77
2019-03-19T06:06:29.557Z,33.03
2019-03-19T06:08:57.424Z,14.27
2019-03-19T06:11:25.080Z,8.83
2019-03-19T06:13:52.844Z,13.60
2019-03-19T06:16:20.605Z,12.07
2019-03-19T06:18:48.386Z,9.50
2019-03-19T06:21:16.140Z,12.53
2019-03-19T06:23:44.199Z,15.70
2019-03-19T06:26:11.983Z,20.23
2019-03-19T06:28:39.733Z,12.60
2019-03-19T06:31:07.526Z,14.33
2019-03-19T06:33:35.289Z,13.87
2019-03-19T06:36:02.928Z,17.87
2019-03-19T06:38:30.721Z,16.23
2019-03-19T06:40:58.485Z,16.00
2019-03-19T06:43:26.451Z,13.73
2019-03-19T06:45:54.421Z,11.80
2019-03-19T06:48:22.109Z,12.20
2019-03-19T06:50:50.055Z,11.43
2019-03-19T06:53:17.808Z,12.97
2019-03-19T06:55:45.593Z,17.23
2019-03-19T06:58:13.561Z,13.13
2019-03-19T07:00:41.431Z,14.50
2019-03-19T07:03:09.294Z,15.93
2019-03-19T07:05:37.162Z,14.17
2019-03-19T07:08:05.753Z,17.90
2019-03-19T07:10:33.616Z,13.27
2019-03-19T07:13:01.483Z,11.80
2019-03-19T07:15:29.462Z,8.87
2019-03-19T07:17:57.420Z,9.10
2019-03-19T07:20:26.016Z,16.03
2019-03-19T07:22:53.783Z,13.17
2019-03-19T07:25:21.645Z,10.43
2019-03-19T07:27:49.515Z,14.20
2019-03-19T07:30:18.820Z,11.93
2019-03-19T07:32:46.577Z,11.17
2019-03-19T07:35:14.528Z,9.07
2019-03-19T07:37:42.508Z,13.63
2019-03-19T07:40:11.522Z,11.90
2019-03-19T07:42:39.277Z,13.67
2019-03-19T07:45:08.981Z,8.63
2019-03-19T07:47:36.763Z,12.47
2019-03-19T07:50:07.085Z,15.75
2019-03-19T07:52:34.850Z,13.37
2019-03-19T07:55:02.503Z,12.03
2019-03-19T07:57:30.230Z,14.93
2019-03-19T07:59:57.972Z,7.97
2019-03-19T08:02:25.808Z,13.13
2019-03-19T08:04:53.501Z,10.20
2019-03-19T08:07:21.234Z,14.13
2019-03-19T08:09:49.109Z,11.63
2019-03-19T08:12:16.978Z,12.37
2019-03-19T08:14:44.850Z,10.70
2019-03-19T08:17:12.715Z,14.23
2019-03-19T08:19:40.436Z,12.03
2019-03-19T08:22:08.350Z,9.30
2019-03-19T08:24:36.212Z,11.33
2019-03-19T08:27:04.080Z,11.07
2019-03-19T08:29:31.788Z,10.83
2019-03-19T08:31:59.621Z,10.33
2019-03-19T08:34:27.373Z,7.53
2019-03-19T08:36:55.156Z,16.67
2019-03-19T08:39:22.909Z,14.57
2019-03-19T08:41:50.685Z,9.93
2019-03-19T08:44:27.440Z,7.00
2019-03-19T08:46:47.949Z,9.60
2019-03-19T08:49:15.824Z,12.07
2019-03-19T08:51:43.580Z,8.73
2019-03-19T08:54:11.452Z,14.03
2019-03-19T08:56:39.320Z,18.23
2019-03-19T08:59:07.085Z,14.90
2019-03-19T09:01:34.959Z,11.33
2019-03-19T09:04:02.712Z,8.83
2019-03-19T09:06:30.490Z,15.13
2019-03-19T09:08:58.261Z,13.70
2019-03-19T09:11:26.126Z,11.07
2019-03-19T09:13:53.999Z,8.00
2019-03-19T09:16:21.635Z,20.93
2019-03-19T09:18:49.299Z,8.37
2019-03-19T09:21:16.979Z,8.50
2019-03-19T09:23:44.701Z,9.63
2019-03-19T09:26:12.617Z,14.67
2019-03-19T09:28:40.386Z,11.77
2019-03-19T09:31:08.147Z,10.77
2019-03-19T09:33:36.017Z,14.47
2019-03-19T09:36:03.758Z,12.33
2019-03-19T09:38:31.440Z,10.10
2019-03-19T09:40:59.091Z,11.90
2019-03-19T09:43:26.876Z,13.63
2019-03-19T09:45:54.534Z,14.30
2019-03-19T09:48:22.287Z,15.67
2019-03-19T09:50:49.993Z,13.47
2019-03-19T09:53:18.763Z,13.60
2019-03-19T09:55:46.831Z,12.43
2019-03-19T09:58:14.589Z,13.27
2019-03-19T10:00:42.364Z,10.47
2019-03-19T10:03:10.072Z,12.87
2019-03-19T10:05:37.780Z,9.30
2019-03-19T10:08:05.552Z,11.93
2019-03-19T10:10:33.480Z,10.37
2019-03-19T10:13:01.447Z,11.33
2019-03-19T10:15:29.355Z,12.53
2019-03-19T10:17:57.231Z,15.03
2019-03-19T10:20:25.218Z,14.20
2019-03-19T10:22:53.072Z,11.97
2019-03-19T10:25:20.945Z,9.87
2019-03-19T10:27:48.812Z,9.13
2019-03-19T10:30:20.885Z,12.27
2019-03-19T10:32:48.747Z,8.53
2019-03-19T10:35:16.492Z,15.03
2019-03-19T10:37:44.162Z,15.13
2019-03-19T10:40:12.759Z,16.20
2019-03-19T10:42:40.441Z,15.03
2019-03-19T10:45:15.356Z,13.43
2019-03-19T10:47:43.220Z,7.00
2019-03-19T10:50:12.495Z,9.17
2019-03-19T10:52:40.397Z,6.37
2019-03-19T10:55:08.266Z,7.70
2019-03-19T10:57:36.033Z,7.17
2019-03-19T11:00:08.824Z,9.77
2019-03-19T11:02:36.479Z,7.00
2019-03-19T11:05:05.880Z,15.53
2019-03-19T11:07:33.528Z,8.60
2019-03-19T11:10:01.518Z,14.90
2019-03-19T11:12:29.487Z,12.37
2019-03-19T11:14:57.232Z,17.57
2019-03-19T11:17:25.012Z,10.37
2019-03-19T11:19:52.795Z,7.63
2019-03-19T11:22:20.528Z,9.10
2019-03-19T11:24:48.207Z,8.90
2019-03-19T11:27:16.078Z,9.43
2019-03-19T11:29:43.956Z,14.57
2019-03-19T11:32:11.709Z,12.80
2019-03-19T11:34:39.489Z,9.17
2019-03-19T11:37:07.343Z,7.77
2019-03-19T11:39:35.221Z,7.67
2019-03-19T11:42:02.999Z,10.43
2019-03-19T11:44:31.244Z,8.60
2019-03-19T11:47:00.007Z,10.33
2019-03-19T11:49:27.717Z,8.20
2019-03-19T11:51:55.536Z,8.33
2019-03-19T11:54:23.351Z,5.87
2019-03-19T11:56:51.219Z,9.13
2019-03-19T11:59:18.940Z,9.03
2019-03-19T12:01:46.847Z,8.10
2019-03-19T12:04:14.721Z,7.90
2019-03-19T12:06:42.355Z,9.90
2019-03-19T12:09:10.193Z,10.03
2019-03-19T12:11:37.923Z,16.10
2019-03-19T12:14:05.795Z,8.33
2019-03-19T12:16:33.553Z,8.03
2019-03-19T12:19:01.193Z,7.97
2019-03-19T12:21:28.857Z,8.13
2019-03-19T12:23:56.545Z,8.13
2019-03-19T12:26:24.222Z,7.43
2019-03-19T12:28:51.926Z,6.17
2019-03-19T12:31:19.737Z,12.00
2019-03-19T12:33:47.416Z,4.70
2019-03-19T12:36:15.143Z,7.27
2019-03-19T12:38:43.029Z,7.40
2019-03-19T12:41:10.695Z,8.37
2019-03-19T12:43:38.462Z,9.27
2019-03-19T12:46:06.541Z,8.30
2019-03-19T12:48:34.218Z,3.77
2019-03-19T12:51:01.918Z,6.03
2019-03-19T12:53:29.543Z,6.00
2019-03-19T12:55:57.388Z,4.93
2019-03-19T12:58:25.362Z,4.10
2019-03-19T13:00:53.007Z,4.87
2019-03-19T13:03:20.790Z,6.60
2019-03-19T13:05:48.435Z,6.00
2019-03-19T13:08:16.212Z,5.93
2019-03-19T13:10:43.983Z,6.33
2019-03-19T13:13:11.735Z,6.47
2019-03-19T13:15:39.728Z,4.70
2019-03-19T13:18:07.613Z,9.33
2019-03-19T13:20:35.360Z,5.93
2019-03-19T13:23:03.538Z,10.33
2019-03-19T13:25:31.322Z,7.90
2019-03-19T13:27:59.051Z,4.47
2019-03-19T13:30:27.545Z,9.00
2019-03-19T13:32:55.420Z,9.50
2019-03-19T13:35:23.163Z,7.70
2019-03-19T13:37:51.035Z,5.87
2019-03-19T13:40:19.049Z,5.27
2019-03-19T13:42:46.767Z,7.27
2019-03-19T13:45:18.240Z,8.53
2019-03-19T13:47:46.125Z,5.90
2019-03-19T13:50:14.598Z,6.07
2019-03-19T13:52:42.543Z,9.70
2019-03-19T13:55:11.765Z,8.43
2019-03-19T13:57:39.636Z,6.47
2019-03-19T14:00:11.500Z,5.47
2019-03-19T14:02:39.253Z,13.70
2019-03-19T14:05:08.263Z,34.37
2019-03-19T14:07:36.022Z,12.67
2019-03-19T14:10:04.861Z,10.20
2019-03-19T14:12:32.573Z,11.13
2019-03-19T14:15:00.355Z,6.10
2019-03-19T14:17:28.317Z,6.50
2019-03-19T14:19:55.959Z,9.07
2019-03-19T14:22:23.633Z,11.37
2019-03-19T14:24:51.517Z,6.83
2019-03-19T14:27:19.376Z,3.43
2019-03-19T14:29:47.246Z,15.13
2019-03-19T14:32:15.000Z,13.93
2019-03-19T14:34:42.785Z,14.37
2019-03-19T14:37:12.406Z,16.23
2019-03-19T14:39:40.154Z,30.00
2019-03-19T14:42:07.921Z,12.13
2019-03-19T14:44:35.667Z,10.07
2019-03-19T14:47:03.465Z,13.17
2019-03-19T14:49:31.217Z,10.50
2019-03-19T14:51:58.969Z,18.80
2019-03-19T14:54:26.743Z,11.83
2019-03-19T14:56:54.489Z,17.63
2019-03-19T14:59:22.155Z,13.63
2019-03-19T15:01:49.959Z,10.70
2019-03-19T15:04:17.702Z,12.93
2019-03-19T15:06:45.464Z,10.80
2019-03-19T15:09:13.246Z,12.37
2019-03-19T15:11:40.984Z,6.83
2019-03-19T15:14:08.775Z,8.50
2019-03-19T15:16:36.541Z,10.13
2019-03-19T15:19:04.401Z,11.67
2019-03-19T15:21:32.084Z,11.57
2019-03-19T15:23:59.727Z,13.00
2019-03-19T15:26:27.495Z,7.20
2019-03-19T15:28:55.356Z,17.87
2019-03-19T15:31:29.848Z,8.63
2019-03-19T15:33:52.429Z,5.37
2019-03-19T15:36:20.188Z,16.10
2019-03-19T15:38:47.970Z,13.57
2019-03-19T15:41:15.830Z,18.20
2019-03-19T15:43:43.700Z,30.77
2019-03-19T15:46:11.566Z,40.70
2019-03-19T15:48:39.328Z,19.07
2019-03-19T15:51:07.207Z,41.53
2019-03-19T15:53:34.888Z,12.63
2019-03-19T15:56:02.732Z,22.33
2019-03-19T15:58:30.606Z,5.73
2019-03-19T16:00:58.481Z,11.10
2019-03-19T16:03:26.240Z,5.73
2019-03-19T16:05:54.010Z,8.47
2019-03-19T16:08:21.692Z,16.73
2019-03-19T16:10:51.532Z,8.30
2019-03-19T16:13:19.036Z,9.90
2019-03-19T16:15:46.805Z,9.73
2019-03-19T16:18:14.949Z,10.43
2019-03-19T16:20:42.644Z,16.60
2019-03-19T16:23:10.415Z,10.77
2019-03-19T16:25:38.286Z,54.47
2019-03-19T16:28:05.945Z,67.73
2019-03-19T16:30:33.713Z,61.67
2019-03-19T16:33:01.468Z,29.50
2019-03-19T16:35:29.251Z,75.97
2019-03-19T16:37:57.004Z,59.00
2019-03-19T16:40:25.057Z,161.17
2019-03-19T16:42:52.955Z,84.60
2019-03-19T16:45:20.820Z,121.53
2019-03-19T16:47:48.927Z,26.23
2019-03-19T16:50:17.174Z,16.20
2019-03-19T16:52:44.812Z,21.90
2019-03-19T16:55:15.981Z,12.83
2019-03-19T16:57:43.609Z,11.07
2019-03-19T17:00:13.043Z,22.63
2019-03-19T17:02:40.691Z,47.30
2019-03-19T17:05:08.967Z,59.60
2019-03-19T17:07:36.655Z,34.23
2019-03-19T17:10:06.912Z,29.82
2019-03-19T17:12:34.621Z,25.60
2019-03-19T17:15:02.312Z,25.40
2019-03-19T17:17:30.066Z,27.37
2019-03-19T17:19:57.723Z,25.13
2019-03-19T17:22:25.480Z,30.03
2019-03-19T17:24:57.551Z,22.30
2019-03-19T17:27:25.428Z,19.77
2019-03-19T17:29:53.197Z,17.57
2019-03-19T17:32:20.948Z,15.30
2019-03-19T17:34:48.624Z,13.80
2019-03-19T17:37:16.332Z,14.83
2019-03-19T17:39:44.040Z,20.37
2019-03-19T17:42:11.836Z,14.57
2019-03-19T17:44:39.485Z,14.43
2019-03-19T17:47:07.176Z,22.33
2019-03-19T17:49:34.908Z,10.23
2019-03-19T17:52:02.551Z,36.53
2019-03-19T17:54:30.450Z,13.30
2019-03-19T17:56:58.319Z,13.97
2019-03-19T17:59:25.964Z,13.70
2019-03-19T18:01:53.740Z,12.27
2019-03-19T18:04:23.025Z,12.30
2019-03-19T18:06:50.787Z,11.63
2019-03-19T18:09:18.577Z,17.93
2019-03-19T18:11:46.322Z,19.17
2019-03-19T18:14:14.009Z,38.93
2019-03-19T18:16:41.973Z,32.43
2019-03-19T18:19:09.630Z,41.27
2019-03-19T18:21:37.409Z,38.40
2019-03-19T18:24:05.638Z,53.40
2019-03-19T18:26:33.356Z,47.87
2019-03-19T18:29:00.983Z,44.53
2019-03-19T18:31:28.789Z,36.37
2019-03-19T18:33:56.477Z,21.23
2019-03-19T18:36:24.308Z,22.97
2019-03-19T18:38:52.085Z,26.83
2019-03-19T18:41:19.840Z,16.53
2019-03-19T18:43:47.502Z,18.87
2019-03-19T18:46:15.377Z,18.03
2019-03-19T18:48:43.132Z,16.47
2019-03-19T18:51:10.896Z,13.27
2019-03-19T18:53:38.668Z,10.23
2019-03-19T18:56:06.429Z,18.50
2019-03-19T18:58:34.210Z,12.90
2019-03-19T19:01:01.977Z,10.87
2019-03-19T19:03:29.845Z,12.83
2019-03-19T19:05:59.376Z,9.33
2019-03-19T19:08:27.091Z,18.60
2019-03-19T19:10:54.764Z,25.53
2019-03-19T19:13:22.524Z,39.80
2019-03-19T19:15:50.296Z,41.07
2019-03-19T19:18:19.815Z,46.57
2019-03-19T19:20:47.512Z,46.93
2019-03-19T19:23:15.445Z,50.77
2019-03-19T19:25:45.027Z,30.10
2019-03-19T19:28:12.716Z,16.97
2019-03-19T19:30:40.486Z,15.63
2019-03-19T19:33:08.356Z,17.83
2019-03-19T19:35:36.220Z,15.77
2019-03-19T19:38:03.976Z,17.27
2019-03-19T19:40:31.859Z,19.37
2019-03-19T19:42:59.613Z,16.77
2019-03-19T19:45:27.393Z,17.67
2019-03-19T19:47:55.057Z,13.50
2019-03-19T19:50:23.217Z,21.40
2019-03-19T19:52:50.997Z,19.83
2019-03-19T19:55:18.859Z,19.97
2019-03-19T19:57:47.020Z,20.43
2019-03-19T20:00:18.427Z,20.30
2019-03-19T20:02:46.353Z,19.70
2019-03-19T20:05:14.247Z,20.27
2019-03-19T20:07:41.996Z,22.90
2019-03-19T20:10:11.298Z,20.67
2019-03-19T20:12:39.057Z,22.43
2019-03-19T20:15:08.093Z,25.77
2019-03-19T20:17:35.922Z,29.80
2019-03-19T20:20:04.949Z,56.03
2019-03-19T20:22:32.695Z,90.67
2019-03-19T20:25:00.445Z,46.20
2019-03-19T20:27:28.111Z,27.53
2019-03-19T20:29:55.983Z,32.80
2019-03-19T20:32:23.851Z,58.83
2019-03-19T20:34:51.718Z,39.50
2019-03-19T20:37:19.489Z,29.57
2019-03-19T20:39:47.246Z,36.97
2019-03-19T20:42:15.022Z,37.93
2019-03-19T20:44:42.782Z,36.87
2019-03-19T20:47:10.423Z,34.60
2019-03-19T20:49:47.319Z,40.10
2019-03-19T20:52:07.505Z,32.93
2019-03-19T20:54:35.378Z,39.50
2019-03-19T20:57:03.148Z,60.27
2019-03-19T20:59:30.900Z,41.10
2019-03-19T21:01:58.577Z,43.90
2019-03-19T21:04:28.950Z,45.73
2019-03-19T21:06:55.866Z,58.93
2019-03-19T21:09:23.615Z,48.83
2019-03-19T21:11:53.281Z,53.33
2019-03-19T21:14:20.791Z,46.27
2019-03-19T21:16:48.427Z,89.87
2019-03-19T21:19:16.213Z,99.90
2019-03-19T21:21:43.876Z,84.47
2019-03-19T21:24:11.593Z,92.77
2019-03-19T21:26:39.413Z,67.47
2019-03-19T21:29:07.164Z,55.37
2019-03-19T21:31:34.919Z,47.80
2019-03-19T21:34:02.714Z,56.23
2019-03-19T21:36:30.577Z,42.17
2019-03-19T21:38:58.323Z,41.13
2019-03-19T21:41:26.105Z,43.87
2019-03-19T21:43:53.873Z,52.40
2019-03-19T21:46:21.693Z,43.07
2019-03-19T21:48:49.611Z,45.93
2019-03-19T21:51:17.477Z,58.33
2019-03-19T21:53:45.226Z,71.80
2019-03-19T21:56:13.010Z,73.70
2019-03-19T21:58:40.879Z,73.17
2019-03-19T22:01:08.522Z,59.13
2019-03-19T22:03:37.950Z,62.17
2019-03-19T22:06:05.713Z,78.43
2019-03-19T22:08:33.782Z,95.17
2019-03-19T22:11:01.558Z,111.20
2019-03-19T22:13:29.576Z,95.43
2019-03-19T22:15:57.394Z,117.67
2019-03-19T22:18:25.144Z,144.43
2019-03-19T22:20:53.005Z,153.87
2019-03-19T22:23:20.900Z,137.37
2019-03-19T22:25:48.748Z,146.37
2019-03-19T22:28:16.628Z,124.70
2019-03-19T22:30:44.695Z,111.47
2019-03-19T22:33:12.460Z,116.90
2019-03-19T22:35:40.226Z,107.10
2019-03-19T22:38:08.044Z,101.30
2019-03-19T22:40:36.275Z,71.80
2019-03-19T22:43:04.149Z,79.50
2019-03-19T22:45:32.007Z,106.83
2019-03-19T22:47:59.645Z,93.13
2019-03-19T22:50:27.451Z,92.43
2019-03-19T22:52:55.208Z,113.77
2019-03-19T22:55:28.900Z,117.93
2019-03-19T22:57:52.683Z,103.73
2019-03-19T23:00:23.579Z,97.80
2019-03-19T23:02:51.702Z,78.97
2019-03-19T23:05:19.875Z,86.97
2019-03-19T23:07:48.043Z,84.67
2019-03-19T23:10:15.777Z,80.27
2019-03-19T23:12:43.586Z,78.30
2019-03-19T23:15:12.058Z,78.90
2019-03-19T23:17:39.920Z,97.47
2019-03-19T23:20:09.138Z,89.17
2019-03-19T23:22:36.785Z,85.93
2019-03-19T23:25:05.787Z,86.13
2019-03-19T23:27:34.067Z,87.73
2019-03-19T23:30:01.936Z,86.23
2019-03-19T23:32:29.615Z,77.87
2019-03-19T23:34:57.463Z,73.97
2019-03-19T23:37:25.228Z,83.47
2019-03-19T23:39:52.897Z,72.97
2019-03-19T23:42:20.657Z,75.47
2019-03-19T23:44:48.531Z,78.80
2019-03-19T23:47:16.496Z,78.73
2019-03-19T23:49:44.171Z,78.23
2019-03-19T23:52:11.929Z,76.77
2019-03-19T23:54:39.692Z,73.73
2019-03-19T23:57:07.394Z,70.33
2019-03-19T23:59:35.130Z,72.47
